Bixby, Oklahoma
Current Conditions -  °F | °C
As of 5:53 AM on Friday 21 Nov 2014 (Local Time) from KRVS Reporting Station
Overcast Overcast  
Wind Chill: 44°   Ceiling: 1300
Heat Index: 46°   Visibility: 10mi
Dew Point: 38°   Wind: 5mph
Humidity: 73%   Direction: 90°E
Pressure: 30.1"   Gusts: NA
Location:  35.94°N, 95.88°W
Report Text: KRVS 211153Z AUTO 09004KT 10SM OVC013 08/03 A3010 RMK AO2 SLP197 T00780033 10078 20033 56006
Loading
Personal Weather Stations






























Interactive Weather Map New forecast layout! Learn more

10-Day Weather Forecast

Advertisements
Track Severe Weather on mobile